sensor_id;sensor_type;location;lat;lon;timestamp;temperature;humidity
23143;DHT22;11740;51.168;4.112;2023-11-22T00:01:04;5.90;99.90
23143;DHT22;11740;51.168;4.112;2023-11-22T00:03:31;5.90;99.90
23143;DHT22;11740;51.168;4.112;2023-11-22T00:05:58;5.80;99.90
23143;DHT22;11740;51.168;4.112;2023-11-22T00:08:25;5.80;99.90
23143;DHT22;11740;51.168;4.112;2023-11-22T00:10:52;5.80;99.90
23143;DHT22;11740;51.168;4.112;2023-11-22T00:13:18;5.70;99.90
23143;DHT22;11740;51.168;4.112;2023-11-22T00:15:45;5.70;99.90
23143;DHT22;11740;51.168;4.112;2023-11-22T00:18:12;5.70;99.90
23143;DHT22;11740;51.168;4.112;2023-11-22T00:20:39;5.60;99.90
23143;DHT22;11740;51.168;4.112;2023-11-22T00:23:06;5.60;99.90
23143;DHT22;11740;51.168;4.112;2023-11-22T00:25:33;5.60;99.90
23143;DHT22;11740;51.168;4.112;2023-11-22T00:28:00;5.50;99.90
23143;DHT22;11740;51.168;4.112;2023-11-22T00:30:27;5.50;99.90
23143;DHT22;11740;51.168;4.112;2023-11-22T00:32:54;5.50;99.90
23143;DHT22;11740;51.168;4.112;2023-11-22T00:35:21;5.50;99.90
23143;DHT22;11740;51.168;4.112;2023-11-22T00:37:48;5.40;99.90
23143;DHT22;11740;51.168;4.112;2023-11-22T00:40:15;5.40;99.90
23143;DHT22;11740;51.168;4.112;2023-11-22T00:42:41;5.40;99.90
23143;DHT22;11740;51.168;4.112;2023-11-22T00:45:10;5.30;99.90
23143;DHT22;11740;51.168;4.112;2023-11-22T00:47:37;5.30;99.90
23143;DHT22;11740;51.168;4.112;2023-11-22T00:50:04;5.30;99.90
23143;DHT22;11740;51.168;4.112;2023-11-22T00:52:31;5.20;99.90
23143;DHT22;11740;51.168;4.112;2023-11-22T00:54:58;5.20;99.90
23143;DHT22;11740;51.168;4.112;2023-11-22T00:57:25;5.10;99.90
23143;DHT22;11740;51.168;4.112;2023-11-22T00:59:53;5.10;99.90
23143;DHT22;11740;51.168;4.112;2023-11-22T01:02:20;5.00;99.90
23143;DHT22;11740;51.168;4.112;2023-11-22T01:04:47;5.00;99.90
23143;DHT22;11740;51.168;4.112;2023-11-22T01:07:14;5.00;99.90
23143;DHT22;11740;51.168;4.112;2023-11-22T01:09:40;5.00;99.90
23143;DHT22;11740;51.168;4.112;2023-11-22T01:12:07;4.90;99.90
23143;DHT22;11740;51.168;4.112;2023-11-22T01:14:35;4.90;99.90
23143;DHT22;11740;51.168;4.112;2023-11-22T01:17:02;4.80;99.90
23143;DHT22;11740;51.168;4.112;2023-11-22T01:19:29;4.80;99.90
23143;DHT22;11740;51.168;4.112;2023-11-22T01:21:56;4.80;99.90
23143;DHT22;11740;51.168;4.112;2023-11-22T01:24:23;4.80;99.90
23143;DHT22;11740;51.168;4.112;2023-11-22T01:26:51;4.80;99.90
23143;DHT22;11740;51.168;4.112;2023-11-22T01:29:18;4.70;99.90
23143;DHT22;11740;51.168;4.112;2023-11-22T01:31:45;4.70;99.90
23143;DHT22;11740;51.168;4.112;2023-11-22T01:34:11;4.60;99.90
23143;DHT22;11740;51.168;4.112;2023-11-22T01:36:42;4.60;99.90
23143;DHT22;11740;51.168;4.112;2023-11-22T01:39:10;4.60;99.90
23143;DHT22;11740;51.168;4.112;2023-11-22T01:41:40;4.60;99.90
23143;DHT22;11740;51.168;4.112;2023-11-22T01:44:08;4.60;99.90
23143;DHT22;11740;51.168;4.112;2023-11-22T01:46:35;4.50;99.90
23143;DHT22;11740;51.168;4.112;2023-11-22T01:49:02;4.50;99.90
23143;DHT22;11740;51.168;4.112;2023-11-22T01:51:29;4.50;99.90
23143;DHT22;11740;51.168;4.112;2023-11-22T01:53:57;4.50;99.90
23143;DHT22;11740;51.168;4.112;2023-11-22T01:56:25;4.40;99.90
23143;DHT22;11740;51.168;4.112;2023-11-22T01:58:54;4.30;99.90
23143;DHT22;11740;51.168;4.112;2023-11-22T02:01:22;4.30;99.90
23143;DHT22;11740;51.168;4.112;2023-11-22T02:03:48;4.30;99.90
23143;DHT22;11740;51.168;4.112;2023-11-22T02:06:16;4.30;99.90
23143;DHT22;11740;51.168;4.112;2023-11-22T02:08:43;4.20;99.90
23143;DHT22;11740;51.168;4.112;2023-11-22T02:11:10;4.20;99.90
23143;DHT22;11740;51.168;4.112;2023-11-22T02:13:37;4.20;99.90
23143;DHT22;11740;51.168;4.112;2023-11-22T02:16:04;4.20;99.90
23143;DHT22;11740;51.168;4.112;2023-11-22T02:18:31;4.10;99.90
23143;DHT22;11740;51.168;4.112;2023-11-22T02:20:58;4.10;99.90
23143;DHT22;11740;51.168;4.112;2023-11-22T02:23:25;4.10;99.90
23143;DHT22;11740;51.168;4.112;2023-11-22T02:25:53;4.00;99.90
23143;DHT22;11740;51.168;4.112;2023-11-22T02:28:21;4.00;99.90
23143;DHT22;11740;51.168;4.112;2023-11-22T02:30:47;4.00;99.90
23143;DHT22;11740;51.168;4.112;2023-11-22T02:33:14;3.90;99.90
23143;DHT22;11740;51.168;4.112;2023-11-22T02:35:41;3.90;99.90
23143;DHT22;11740;51.168;4.112;2023-11-22T02:38:08;3.90;99.90
23143;DHT22;11740;51.168;4.112;2023-11-22T02:40:35;3.90;99.90
23143;DHT22;11740;51.168;4.112;2023-11-22T02:43:02;3.80;99.90
23143;DHT22;11740;51.168;4.112;2023-11-22T02:45:33;3.80;99.90
23143;DHT22;11740;51.168;4.112;2023-11-22T02:48:00;3.70;99.90
23143;DHT22;11740;51.168;4.112;2023-11-22T02:50:30;3.70;99.90
23143;DHT22;11740;51.168;4.112;2023-11-22T02:53:01;3.60;99.90
23143;DHT22;11740;51.168;4.112;2023-11-22T02:55:28;3.60;99.90
23143;DHT22;11740;51.168;4.112;2023-11-22T02:57:55;3.50;99.90
23143;DHT22;11740;51.168;4.112;2023-11-22T03:00:22;3.50;99.90
23143;DHT22;11740;51.168;4.112;2023-11-22T03:02:51;3.50;99.90
23143;DHT22;11740;51.168;4.112;2023-11-22T03:05:20;3.50;99.90
23143;DHT22;11740;51.168;4.112;2023-11-22T03:07:48;3.50;99.90
23143;DHT22;11740;51.168;4.112;2023-11-22T03:10:18;3.40;99.90
23143;DHT22;11740;51.168;4.112;2023-11-22T03:12:45;3.40;99.90
23143;DHT22;11740;51.168;4.112;2023-11-22T03:15:11;3.40;99.90
23143;DHT22;11740;51.168;4.112;2023-11-22T03:17:38;3.40;99.90
23143;DHT22;11740;51.168;4.112;2023-11-22T03:20:06;3.40;99.90
23143;DHT22;11740;51.168;4.112;2023-11-22T03:22:37;3.30;99.90
23143;DHT22;11740;51.168;4.112;2023-11-22T03:25:04;3.30;99.90
23143;DHT22;11740;51.168;4.112;2023-11-22T03:27:31;3.30;99.90
23143;DHT22;11740;51.168;4.112;2023-11-22T03:29:59;3.30;99.90
23143;DHT22;11740;51.168;4.112;2023-11-22T03:32:26;3.20;99.90
23143;DHT22;11740;51.168;4.112;2023-11-22T03:34:54;3.10;99.90
23143;DHT22;11740;51.168;4.112;2023-11-22T03:37:20;3.10;99.90
23143;DHT22;11740;51.168;4.112;2023-11-22T03:39:47;3.00;99.90
23143;DHT22;11740;51.168;4.112;2023-11-22T03:42:17;3.10;99.90
23143;DHT22;11740;51.168;4.112;2023-11-22T03:44:44;3.10;99.90
23143;DHT22;11740;51.168;4.112;2023-11-22T03:47:11;3.10;99.90
23143;DHT22;11740;51.168;4.112;2023-11-22T03:49:39;3.00;99.90
23143;DHT22;11740;51.168;4.112;2023-11-22T03:52:06;3.00;99.90
23143;DHT22;11740;51.168;4.112;2023-11-22T03:54:34;3.00;99.90
23143;DHT22;11740;51.168;4.112;2023-11-22T03:57:02;3.00;99.90
23143;DHT22;11740;51.168;4.112;2023-11-22T03:59:29;2.90;99.90
23143;DHT22;11740;51.168;4.112;2023-11-22T04:01:56;2.90;99.90
23143;DHT22;11740;51.168;4.112;2023-11-22T04:04:23;2.90;99.90
23143;DHT22;11740;51.168;4.112;2023-11-22T04:06:50;2.90;99.90
23143;DHT22;11740;51.168;4.112;2023-11-22T04:09:17;2.90;99.90
23143;DHT22;11740;51.168;4.112;2023-11-22T04:11:44;2.90;99.90
23143;DHT22;11740;51.168;4.112;2023-11-22T04:14:10;2.80;99.90
23143;DHT22;11740;51.168;4.112;2023-11-22T04:16:38;2.80;1.00
23143;DHT22;11740;51.168;4.112;2023-11-22T04:19:05;2.80;1.00
23143;DHT22;11740;51.168;4.112;2023-11-22T04:21:32;2.80;1.00
23143;DHT22;11740;51.168;4.112;2023-11-22T04:23:59;2.70;1.00
23143;DHT22;11740;51.168;4.112;2023-11-22T04:26:26;2.70;1.00
23143;DHT22;11740;51.168;4.112;2023-11-22T04:28:53;2.70;1.00
23143;DHT22;11740;51.168;4.112;2023-11-22T04:31:20;2.70;1.00
23143;DHT22;11740;51.168;4.112;2023-11-22T04:33:46;2.70;1.00
23143;DHT22;11740;51.168;4.112;2023-11-22T04:36:13;2.70;1.00
23143;DHT22;11740;51.168;4.112;2023-11-22T04:38:40;2.70;20.30
23143;DHT22;11740;51.168;4.112;2023-11-22T04:41:07;2.60;32.30
23143;DHT22;11740;51.168;4.112;2023-11-22T04:43:34;2.70;80.10
23143;DHT22;11740;51.168;4.112;2023-11-22T04:46:01;2.60;99.90
23143;DHT22;11740;51.168;4.112;2023-11-22T04:48:28;2.60;99.90
23143;DHT22;11740;51.168;4.112;2023-11-22T04:50:55;2.70;99.90
23143;DHT22;11740;51.168;4.112;2023-11-22T04:53:21;2.60;99.90
23143;DHT22;11740;51.168;4.112;2023-11-22T04:55:48;2.60;99.90
23143;DHT22;11740;51.168;4.112;2023-11-22T04:58:15;2.60;99.90
23143;DHT22;11740;51.168;4.112;2023-11-22T05:00:42;2.70;99.90
23143;DHT22;11740;51.168;4.112;2023-11-22T05:03:09;2.70;1.00
23143;DHT22;11740;51.168;4.112;2023-11-22T05:05:36;2.60;1.00
23143;DHT22;11740;51.168;4.112;2023-11-22T05:08:03;2.60;1.00
23143;DHT22;11740;51.168;4.112;2023-11-22T05:10:30;2.60;1.00
23143;DHT22;11740;51.168;4.112;2023-11-22T05:12:57;2.70;1.00
23143;DHT22;11740;51.168;4.112;2023-11-22T05:15:26;2.60;1.00
23143;DHT22;11740;51.168;4.112;2023-11-22T05:17:54;2.60;1.00
23143;DHT22;11740;51.168;4.112;2023-11-22T05:20:21;2.60;1.00
23143;DHT22;11740;51.168;4.112;2023-11-22T05:22:48;2.60;1.00
23143;DHT22;11740;51.168;4.112;2023-11-22T05:25:15;2.60;1.00
23143;DHT22;11740;51.168;4.112;2023-11-22T05:27:41;2.60;1.00
23143;DHT22;11740;51.168;4.112;2023-11-22T05:30:08;2.60;1.00
23143;DHT22;11740;51.168;4.112;2023-11-22T05:32:37;2.60;1.00
23143;DHT22;11740;51.168;4.112;2023-11-22T05:35:04;2.60;1.00
23143;DHT22;11740;51.168;4.112;2023-11-22T05:37:36;2.50;1.00
23143;DHT22;11740;51.168;4.112;2023-11-22T05:40:04;2.50;1.00
23143;DHT22;11740;51.168;4.112;2023-11-22T05:42:31;2.50;1.00
23143;DHT22;11740;51.168;4.112;2023-11-22T05:44:58;2.50;1.00
23143;DHT22;11740;51.168;4.112;2023-11-22T05:47:25;2.50;1.00
23143;DHT22;11740;51.168;4.112;2023-11-22T05:49:52;2.50;1.00
23143;DHT22;11740;51.168;4.112;2023-11-22T05:52:19;2.50;1.00
23143;DHT22;11740;51.168;4.112;2023-11-22T05:54:47;2.50;1.00
23143;DHT22;11740;51.168;4.112;2023-11-22T05:57:14;2.50;1.00
23143;DHT22;11740;51.168;4.112;2023-11-22T05:59:41;2.50;1.00
23143;DHT22;11740;51.168;4.112;2023-11-22T06:02:08;2.50;68.00
23143;DHT22;11740;51.168;4.112;2023-11-22T06:04:35;2.60;70.10
23143;DHT22;11740;51.168;4.112;2023-11-22T06:07:05;2.50;99.90
23143;DHT22;11740;51.168;4.112;2023-11-22T06:09:31;2.60;99.90
23143;DHT22;11740;51.168;4.112;2023-11-22T06:12:01;2.50;99.90
23143;DHT22;11740;51.168;4.112;2023-11-22T06:14:27;2.50;99.90
23143;DHT22;11740;51.168;4.112;2023-11-22T06:16:54;2.50;99.90
23143;DHT22;11740;51.168;4.112;2023-11-22T06:19:21;2.60;99.90
23143;DHT22;11740;51.168;4.112;2023-11-22T06:21:48;2.60;99.90
23143;DHT22;11740;51.168;4.112;2023-11-22T06:24:15;2.60;99.90
23143;DHT22;11740;51.168;4.112;2023-11-22T06:26:46;2.60;99.90
23143;DHT22;11740;51.168;4.112;2023-11-22T06:29:13;2.60;99.90
23143;DHT22;11740;51.168;4.112;2023-11-22T06:31:41;2.60;99.90
23143;DHT22;11740;51.168;4.112;2023-11-22T06:34:08;2.60;99.90
23143;DHT22;11740;51.168;4.112;2023-11-22T06:36:35;2.60;99.90
23143;DHT22;11740;51.168;4.112;2023-11-22T06:39:02;2.60;99.90
23143;DHT22;11740;51.168;4.112;2023-11-22T06:41:30;2.60;99.90
23143;DHT22;11740;51.168;4.112;2023-11-22T06:43:57;2.60;99.90
23143;DHT22;11740;51.168;4.112;2023-11-22T06:46:24;2.60;99.90
23143;DHT22;11740;51.168;4.112;2023-11-22T06:48:51;2.50;99.90
23143;DHT22;11740;51.168;4.112;2023-11-22T06:51:18;2.50;99.90
23143;DHT22;11740;51.168;4.112;2023-11-22T06:53:45;2.60;99.90
23143;DHT22;11740;51.168;4.112;2023-11-22T06:56:12;2.60;99.90
23143;DHT22;11740;51.168;4.112;2023-11-22T06:58:39;2.60;99.90
23143;DHT22;11740;51.168;4.112;2023-11-22T07:01:07;2.60;99.90
23143;DHT22;11740;51.168;4.112;2023-11-22T07:03:34;2.60;99.90
23143;DHT22;11740;51.168;4.112;2023-11-22T07:06:01;2.60;1.00
23143;DHT22;11740;51.168;4.112;2023-11-22T07:08:29;2.70;1.00
23143;DHT22;11740;51.168;4.112;2023-11-22T07:10:56;2.70;1.00
23143;DHT22;11740;51.168;4.112;2023-11-22T07:13:23;2.70;1.00
23143;DHT22;11740;51.168;4.112;2023-11-22T07:15:51;2.80;1.00
23143;DHT22;11740;51.168;4.112;2023-11-22T07:18:18;2.70;1.00
23143;DHT22;11740;51.168;4.112;2023-11-22T07:20:45;2.80;1.00
23143;DHT22;11740;51.168;4.112;2023-11-22T07:23:15;2.80;1.00
23143;DHT22;11740;51.168;4.112;2023-11-22T07:25:42;2.80;1.00
23143;DHT22;11740;51.168;4.112;2023-11-22T07:28:10;2.90;1.00
23143;DHT22;11740;51.168;4.112;2023-11-22T07:30:37;2.90;1.00
23143;DHT22;11740;51.168;4.112;2023-11-22T07:33:07;2.90;1.00
23143;DHT22;11740;51.168;4.112;2023-11-22T07:35:35;2.90;1.00
23143;DHT22;11740;51.168;4.112;2023-11-22T07:38:02;2.90;1.00
23143;DHT22;11740;51.168;4.112;2023-11-22T07:40:30;2.80;1.00
23143;DHT22;11740;51.168;4.112;2023-11-22T07:42:57;2.80;1.00
23143;DHT22;11740;51.168;4.112;2023-11-22T07:45:24;2.90;1.00
23143;DHT22;11740;51.168;4.112;2023-11-22T07:47:51;2.90;1.00
23143;DHT22;11740;51.168;4.112;2023-11-22T07:50:19;2.90;1.00
23143;DHT22;11740;51.168;4.112;2023-11-22T07:52:48;2.90;1.00
23143;DHT22;11740;51.168;4.112;2023-11-22T07:55:15;2.90;1.00
23143;DHT22;11740;51.168;4.112;2023-11-22T07:57:44;2.90;1.00
23143;DHT22;11740;51.168;4.112;2023-11-22T08:00:11;2.90;1.00
23143;DHT22;11740;51.168;4.112;2023-11-22T08:02:39;3.00;16.70
23143;DHT22;11740;51.168;4.112;2023-11-22T08:05:06;2.90;12.20
23143;DHT22;11740;51.168;4.112;2023-11-22T08:07:36;2.90;18.60
23143;DHT22;11740;51.168;4.112;2023-11-22T08:10:08;2.90;8.30
23143;DHT22;11740;51.168;4.112;2023-11-22T08:12:48;2.90;14.70
23143;DHT22;11740;51.168;4.112;2023-11-22T08:15:17;2.90;13.60
23143;DHT22;11740;51.168;4.112;2023-11-22T08:17:47;3.00;20.30
23143;DHT22;11740;51.168;4.112;2023-11-22T08:20:14;2.90;11.30
23143;DHT22;11740;51.168;4.112;2023-11-22T08:22:45;3.00;45.20
23143;DHT22;11740;51.168;4.112;2023-11-22T08:25:12;3.00;52.00
23143;DHT22;11740;51.168;4.112;2023-11-22T08:27:40;3.00;59.00
23143;DHT22;11740;51.168;4.112;2023-11-22T08:30:08;3.00;56.30
23143;DHT22;11740;51.168;4.112;2023-11-22T08:32:41;3.00;87.40
23143;DHT22;11740;51.168;4.112;2023-11-22T08:35:09;3.00;87.20
23143;DHT22;11740;51.168;4.112;2023-11-22T08:37:40;3.10;99.90
23143;DHT22;11740;51.168;4.112;2023-11-22T08:40:09;3.10;99.90
23143;DHT22;11740;51.168;4.112;2023-11-22T08:42:47;3.10;99.90
23143;DHT22;11740;51.168;4.112;2023-11-22T08:45:14;3.10;99.90
23143;DHT22;11740;51.168;4.112;2023-11-22T08:47:42;3.10;99.90
23143;DHT22;11740;51.168;4.112;2023-11-22T08:50:09;3.10;99.90
23143;DHT22;11740;51.168;4.112;2023-11-22T08:52:40;3.20;99.90
23143;DHT22;11740;51.168;4.112;2023-11-22T08:55:08;3.20;99.90
23143;DHT22;11740;51.168;4.112;2023-11-22T08:57:36;3.20;99.90
23143;DHT22;11740;51.168;4.112;2023-11-22T09:00:04;3.30;99.90
23143;DHT22;11740;51.168;4.112;2023-11-22T09:02:35;3.30;99.90
23143;DHT22;11740;51.168;4.112;2023-11-22T09:05:03;3.40;99.90
23143;DHT22;11740;51.168;4.112;2023-11-22T09:07:33;3.50;99.90
23143;DHT22;11740;51.168;4.112;2023-11-22T09:10:02;3.50;99.90
23143;DHT22;11740;51.168;4.112;2023-11-22T09:12:37;3.50;99.90
23143;DHT22;11740;51.168;4.112;2023-11-22T09:15:08;3.50;99.90
23143;DHT22;11740;51.168;4.112;2023-11-22T09:17:39;3.50;99.90
23143;DHT22;11740;51.168;4.112;2023-11-22T09:20:14;3.60;99.90
23143;DHT22;11740;51.168;4.112;2023-11-22T09:22:42;3.60;99.90
23143;DHT22;11740;51.168;4.112;2023-11-22T09:25:15;3.60;99.90
23143;DHT22;11740;51.168;4.112;2023-11-22T09:27:46;3.70;1.00
23143;DHT22;11740;51.168;4.112;2023-11-22T09:30:15;3.80;1.00
23143;DHT22;11740;51.168;4.112;2023-11-22T09:33:02;3.80;1.00
23143;DHT22;11740;51.168;4.112;2023-11-22T09:35:31;3.80;1.00
23143;DHT22;11740;51.168;4.112;2023-11-22T09:37:58;3.90;1.00
23143;DHT22;11740;51.168;4.112;2023-11-22T09:40:26;3.90;1.00
23143;DHT22;11740;51.168;4.112;2023-11-22T09:42:58;3.90;1.00
23143;DHT22;11740;51.168;4.112;2023-11-22T09:45:27;3.90;1.00
23143;DHT22;11740;51.168;4.112;2023-11-22T09:47:54;4.00;1.00
23143;DHT22;11740;51.168;4.112;2023-11-22T09:50:30;4.00;1.00
23143;DHT22;11740;51.168;4.112;2023-11-22T09:53:02;4.10;1.00
23143;DHT22;11740;51.168;4.112;2023-11-22T09:55:30;4.10;1.00
23143;DHT22;11740;51.168;4.112;2023-11-22T09:57:58;4.10;1.00
23143;DHT22;11740;51.168;4.112;2023-11-22T10:00:29;4.10;1.00
23143;DHT22;11740;51.168;4.112;2023-11-22T10:02:59;4.10;1.00
23143;DHT22;11740;51.168;4.112;2023-11-22T10:05:26;4.20;1.00
23143;DHT22;11740;51.168;4.112;2023-11-22T10:07:55;4.20;1.00
23143;DHT22;11740;51.168;4.112;2023-11-22T10:10:22;4.30;1.00
23143;DHT22;11740;51.168;4.112;2023-11-22T10:12:51;4.30;1.00
23143;DHT22;11740;51.168;4.112;2023-11-22T10:15:22;4.40;1.00
23143;DHT22;11740;51.168;4.112;2023-11-22T10:17:56;4.40;1.00
23143;DHT22;11740;51.168;4.112;2023-11-22T10:20:25;4.40;1.00
23143;DHT22;11740;51.168;4.112;2023-11-22T10:23:19;4.40;1.00
23143;DHT22;11740;51.168;4.112;2023-11-22T10:25:52;4.50;1.00
23143;DHT22;11740;51.168;4.112;2023-11-22T10:28:19;4.50;1.00
23143;DHT22;11740;51.168;4.112;2023-11-22T10:30:48;4.60;1.00
23143;DHT22;11740;51.168;4.112;2023-11-22T10:33:18;4.60;1.00
23143;DHT22;11740;51.168;4.112;2023-11-22T10:35:47;4.60;1.00
23143;DHT22;11740;51.168;4.112;2023-11-22T10:38:20;4.60;1.00
23143;DHT22;11740;51.168;4.112;2023-11-22T10:40:47;4.70;1.00
23143;DHT22;11740;51.168;4.112;2023-11-22T10:43:15;4.80;1.00
23143;DHT22;11740;51.168;4.112;2023-11-22T10:45:43;4.80;1.00
23143;DHT22;11740;51.168;4.112;2023-11-22T10:48:18;4.80;1.00
23143;DHT22;11740;51.168;4.112;2023-11-22T10:50:45;4.80;1.00
23143;DHT22;11740;51.168;4.112;2023-11-22T10:53:12;4.90;1.00
23143;DHT22;11740;51.168;4.112;2023-11-22T10:55:46;5.00;1.00
23143;DHT22;11740;51.168;4.112;2023-11-22T10:58:14;5.00;99.90
23143;DHT22;11740;51.168;4.112;2023-11-22T11:00:42;5.00;99.90
23143;DHT22;11740;51.168;4.112;2023-11-22T11:03:14;5.10;99.90
23143;DHT22;11740;51.168;4.112;2023-11-22T11:05:42;5.10;99.90
23143;DHT22;11740;51.168;4.112;2023-11-22T11:08:13;5.10;99.90
23143;DHT22;11740;51.168;4.112;2023-11-22T11:10:45;5.20;99.90
23143;DHT22;11740;51.168;4.112;2023-11-22T11:13:12;5.20;99.90
23143;DHT22;11740;51.168;4.112;2023-11-22T11:15:40;5.20;99.90
23143;DHT22;11740;51.168;4.112;2023-11-22T11:18:10;5.20;99.90
23143;DHT22;11740;51.168;4.112;2023-11-22T11:20:52;5.20;99.90
23143;DHT22;11740;51.168;4.112;2023-11-22T11:23:20;5.20;73.00
23143;DHT22;11740;51.168;4.112;2023-11-22T11:25:49;5.30;99.90
23143;DHT22;11740;51.168;4.112;2023-11-22T11:28:17;5.30;64.70
23143;DHT22;11740;51.168;4.112;2023-11-22T11:30:49;5.30;43.00
23143;DHT22;11740;51.168;4.112;2023-11-22T11:35:53;5.20;1.00
23143;DHT22;11740;51.168;4.112;2023-11-22T11:38:26;5.30;1.00
23143;DHT22;11740;51.168;4.112;2023-11-22T11:41:00;5.30;1.00
23143;DHT22;11740;51.168;4.112;2023-11-22T11:43:42;5.30;1.00
23143;DHT22;11740;51.168;4.112;2023-11-22T11:46:10;5.30;1.00
23143;DHT22;11740;51.168;4.112;2023-11-22T11:48:41;5.40;1.00
23143;DHT22;11740;51.168;4.112;2023-11-22T11:51:15;5.40;1.00
23143;DHT22;11740;51.168;4.112;2023-11-22T11:53:42;5.40;1.00
23143;DHT22;11740;51.168;4.112;2023-11-22T11:56:10;5.50;1.00
23143;DHT22;11740;51.168;4.112;2023-11-22T11:58:38;5.50;1.00
23143;DHT22;11740;51.168;4.112;2023-11-22T12:01:08;5.50;1.00
23143;DHT22;11740;51.168;4.112;2023-11-22T12:03:35;5.50;1.00
23143;DHT22;11740;51.168;4.112;2023-11-22T12:06:03;5.50;1.00
23143;DHT22;11740;51.168;4.112;2023-11-22T12:08:33;5.40;1.00
23143;DHT22;11740;51.168;4.112;2023-11-22T12:11:03;5.40;1.00
23143;DHT22;11740;51.168;4.112;2023-11-22T12:13:37;5.50;1.00
23143;DHT22;11740;51.168;4.112;2023-11-22T12:16:05;5.50;1.00
23143;DHT22;11740;51.168;4.112;2023-11-22T12:18:41;5.50;1.00
23143;DHT22;11740;51.168;4.112;2023-11-22T12:21:10;5.50;1.00
23143;DHT22;11740;51.168;4.112;2023-11-22T12:23:39;5.50;1.00
23143;DHT22;11740;51.168;4.112;2023-11-22T12:26:14;5.60;1.00
23143;DHT22;11740;51.168;4.112;2023-11-22T12:28:42;5.50;1.00
23143;DHT22;11740;51.168;4.112;2023-11-22T12:31:26;5.60;1.00
23143;DHT22;11740;51.168;4.112;2023-11-22T12:33:56;5.60;1.00
23143;DHT22;11740;51.168;4.112;2023-11-22T12:36:23;5.60;1.00
23143;DHT22;11740;51.168;4.112;2023-11-22T12:38:50;5.70;1.00
23143;DHT22;11740;51.168;4.112;2023-11-22T12:41:17;5.70;1.00
23143;DHT22;11740;51.168;4.112;2023-11-22T12:44:01;5.80;1.00
23143;DHT22;11740;51.168;4.112;2023-11-22T12:46:28;5.70;99.90
23143;DHT22;11740;51.168;4.112;2023-11-22T12:49:16;5.70;99.90
23143;DHT22;11740;51.168;4.112;2023-11-22T12:51:49;5.80;99.90
23143;DHT22;11740;51.168;4.112;2023-11-22T12:54:16;5.80;99.90
23143;DHT22;11740;51.168;4.112;2023-11-22T12:56:43;5.80;99.90
23143;DHT22;11740;51.168;4.112;2023-11-22T12:59:10;5.90;99.90
23143;DHT22;11740;51.168;4.112;2023-11-22T13:01:37;5.90;99.90
23143;DHT22;11740;51.168;4.112;2023-11-22T13:04:04;5.90;99.90
23143;DHT22;11740;51.168;4.112;2023-11-22T13:06:31;5.90;99.90
23143;DHT22;11740;51.168;4.112;2023-11-22T13:08:58;5.90;99.90
23143;DHT22;11740;51.168;4.112;2023-11-22T13:11:25;6.00;99.90
23143;DHT22;11740;51.168;4.112;2023-11-22T13:13:52;6.00;99.90
23143;DHT22;11740;51.168;4.112;2023-11-22T13:16:19;6.00;99.90
23143;DHT22;11740;51.168;4.112;2023-11-22T13:18:46;6.00;84.40
23143;DHT22;11740;51.168;4.112;2023-11-22T13:21:14;6.00;44.00
23143;DHT22;11740;51.168;4.112;2023-11-22T13:23:41;6.20;99.90
23143;DHT22;11740;51.168;4.112;2023-11-22T13:26:08;6.20;61.90
23143;DHT22;11740;51.168;4.112;2023-11-22T13:28:39;6.20;27.50
23143;DHT22;11740;51.168;4.112;2023-11-22T13:31:09;6.20;1.20
23143;DHT22;11740;51.168;4.112;2023-11-22T13:33:36;6.30;1.00
23143;DHT22;11740;51.168;4.112;2023-11-22T13:36:04;6.30;1.00
23143;DHT22;11740;51.168;4.112;2023-11-22T13:38:31;6.40;1.00
23143;DHT22;11740;51.168;4.112;2023-11-22T13:40:58;6.40;1.00
23143;DHT22;11740;51.168;4.112;2023-11-22T13:43:25;6.50;1.00
23143;DHT22;11740;51.168;4.112;2023-11-22T13:45:52;6.40;1.00
23143;DHT22;11740;51.168;4.112;2023-11-22T13:48:19;6.40;1.00
23143;DHT22;11740;51.168;4.112;2023-11-22T13:50:46;6.50;1.00
23143;DHT22;11740;51.168;4.112;2023-11-22T13:53:13;6.50;1.00
23143;DHT22;11740;51.168;4.112;2023-11-22T13:55:40;6.50;1.00
23143;DHT22;11740;51.168;4.112;2023-11-22T13:58:06;6.60;1.00
23143;DHT22;11740;51.168;4.112;2023-11-22T14:00:35;6.60;1.00
23143;DHT22;11740;51.168;4.112;2023-11-22T14:03:03;6.60;1.00
23143;DHT22;11740;51.168;4.112;2023-11-22T14:05:35;6.60;1.00
23143;DHT22;11740;51.168;4.112;2023-11-22T14:08:05;6.70;1.00
23143;DHT22;11740;51.168;4.112;2023-11-22T14:10:33;6.60;1.00
23143;DHT22;11740;51.168;4.112;2023-11-22T14:13:00;6.60;1.00
23143;DHT22;11740;51.168;4.112;2023-11-22T14:15:28;6.60;99.90
23143;DHT22;11740;51.168;4.112;2023-11-22T14:17:55;6.60;99.90
23143;DHT22;11740;51.168;4.112;2023-11-22T14:20:22;6.60;99.90
23143;DHT22;11740;51.168;4.112;2023-11-22T14:22:51;6.70;99.90
23143;DHT22;11740;51.168;4.112;2023-11-22T14:25:19;6.60;99.90
23143;DHT22;11740;51.168;4.112;2023-11-22T14:27:46;6.70;99.90
23143;DHT22;11740;51.168;4.112;2023-11-22T14:30:18;6.70;99.90
23143;DHT22;11740;51.168;4.112;2023-11-22T14:32:47;6.60;7.70
23143;DHT22;11740;51.168;4.112;2023-11-22T14:35:14;6.70;27.40
23143;DHT22;11740;51.168;4.112;2023-11-22T14:37:41;6.70;68.80
23143;DHT22;11740;51.168;4.112;2023-11-22T14:40:09;6.70;75.00
23143;DHT22;11740;51.168;4.112;2023-11-22T14:42:43;6.70;82.10
23143;DHT22;11740;51.168;4.112;2023-11-22T14:45:19;6.70;27.10
23143;DHT22;11740;51.168;4.112;2023-11-22T14:47:47;6.70;99.90
23143;DHT22;11740;51.168;4.112;2023-11-22T14:50:14;6.70;99.90
23143;DHT22;11740;51.168;4.112;2023-11-22T14:52:42;6.70;99.90
23143;DHT22;11740;51.168;4.112;2023-11-22T14:55:11;6.70;99.90
23143;DHT22;11740;51.168;4.112;2023-11-22T14:57:39;6.70;99.90
23143;DHT22;11740;51.168;4.112;2023-11-22T15:00:06;6.70;99.90
23143;DHT22;11740;51.168;4.112;2023-11-22T15:02:39;6.70;99.90
23143;DHT22;11740;51.168;4.112;2023-11-22T15:05:09;6.70;99.90
23143;DHT22;11740;51.168;4.112;2023-11-22T15:07:38;6.70;99.90
23143;DHT22;11740;51.168;4.112;2023-11-22T15:10:08;6.70;99.90
23143;DHT22;11740;51.168;4.112;2023-11-22T15:12:36;6.70;99.90
23143;DHT22;11740;51.168;4.112;2023-11-22T15:15:06;6.80;99.90
23143;DHT22;11740;51.168;4.112;2023-11-22T15:17:34;6.70;99.90
23143;DHT22;11740;51.168;4.112;2023-11-22T15:20:01;6.70;99.90
23143;DHT22;11740;51.168;4.112;2023-11-22T15:22:28;6.70;81.20
23143;DHT22;11740;51.168;4.112;2023-11-22T15:24:55;6.70;84.10
23143;DHT22;11740;51.168;4.112;2023-11-22T15:27:22;6.70;99.90
23143;DHT22;11740;51.168;4.112;2023-11-22T15:29:48;6.70;99.90
23143;DHT22;11740;51.168;4.112;2023-11-22T15:32:15;6.70;99.90
23143;DHT22;11740;51.168;4.112;2023-11-22T15:34:42;6.80;99.90
23143;DHT22;11740;51.168;4.112;2023-11-22T15:37:12;6.80;99.90
23143;DHT22;11740;51.168;4.112;2023-11-22T15:39:39;6.70;99.90
23143;DHT22;11740;51.168;4.112;2023-11-22T15:42:06;6.80;99.90
23143;DHT22;11740;51.168;4.112;2023-11-22T15:44:33;6.70;99.90
23143;DHT22;11740;51.168;4.112;2023-11-22T15:47:01;6.70;99.90
23143;DHT22;11740;51.168;4.112;2023-11-22T15:49:40;6.70;66.20
23143;DHT22;11740;51.168;4.112;2023-11-22T15:52:07;6.70;8.50
23143;DHT22;11740;51.168;4.112;2023-11-22T15:54:34;6.70;14.70
23143;DHT22;11740;51.168;4.112;2023-11-22T15:57:00;6.70;11.60
23143;DHT22;11740;51.168;4.112;2023-11-22T15:59:28;6.70;57.80
23143;DHT22;11740;51.168;4.112;2023-11-22T16:01:55;6.70;99.90